< Cyclone 200202 2002 Season Cyclone 200204 >
Cyclone 200203 (BERNIE)
General InformationTrack Information on Google MapsDetailed Wind InformationList of All Images || ResourceGoogle EarthGE AnimationAtom FeedGeoJSON
Detalied Best Track (Time Zone = UTC)
Year Month Day Hour Lat. Long. Pressure (hPa) Wind (kt) Class Image Chart
2001 12 30 21 -11.4 137.5 1006 15 2 Image --
2001 12 31 00 -11.6 137.5 1007 15 2 Image --
2001 12 31 06 -12.0 137.8 1004 20 2 Image --
2001 12 31 12 -12.1 137.9 1005 20 2 Image --
2001 12 31 18 -12.4 137.9 1003 20 2 Image --
2002 1 1 00 -12.6 137.9 1003 20 2 Image --
2002 1 1 06 -13.0 138.0 1001 25 2 Image --
2002 1 1 12 -13.6 138.6 1001 25 2 Image --
2002 1 1 18 -13.7 138.8 1001 25 2 Image --
2002 1 2 00 -14.1 139.2 1001 25 2 Image --
2002 1 2 06 -14.3 139.2 999 25 2 Image --
2002 1 2 12 -14.4 139.0 999 25 2 Image --
2002 1 2 18 -14.5 139.0 998 30 2 Image --
2002 1 3 00 -14.5 139.0 997 33 2 Image --
2002 1 3 06 -14.6 138.9 987 45 3 Image --
2002 1 3 12 -14.9 139.0 983 50 4 Image --
2002 1 3 18 -15.2 139.1 980 55 4 Image --
2002 1 4 00 -15.4 139.1 985 50 4 Image --
2002 1 4 06 -16.0 139.0 988 45 3 Image --
2002 1 4 12 -16.4 138.8 993 40 3 Image --
2002 1 4 18 -16.5 138.6 994 35 3 Image --
2002 1 5 00 -16.6 138.4 996 33 2 Image --
2002 1 5 06 -17.0 138.3 998 30 2 Image --
2002 1 5 12 -17.3 138.0 1001 25 2 Image --
2002 1 5 18 -17.8 137.7 1001 25 2 Image --
2002 1 6 00 -18.4 137.5 1003 20 2 Image --
2002 1 6 06 -18.7 137.4 1001 20 2 Image --
< Cyclone 200202 2002 Season Cyclone 200204 >

Help